sensor_id;sensor_type;location;lat;lon;timestamp;P1;durP1;ratioP1;P2;durP2;ratioP2
6342;SDS011;3204;42.698;23.298;2023-02-15T00:01:05;66.53;;;32.43;;
6342;SDS011;3204;42.698;23.298;2023-02-15T00:03:32;73.00;;;31.00;;
6342;SDS011;3204;42.698;23.298;2023-02-15T00:05:58;72.70;;;32.77;;
6342;SDS011;3204;42.698;23.298;2023-02-15T00:08:23;72.80;;;32.30;;
6342;SDS011;3204;42.698;23.298;2023-02-15T00:10:49;67.40;;;33.67;;
6342;SDS011;3204;42.698;23.298;2023-02-15T00:13:14;64.33;;;31.17;;
6342;SDS011;3204;42.698;23.298;2023-02-15T00:15:40;65.37;;;31.73;;
6342;SDS011;3204;42.698;23.298;2023-02-15T00:18:05;61.23;;;32.57;;
6342;SDS011;3204;42.698;23.298;2023-02-15T00:20:31;93.53;;;39.77;;
6342;SDS011;3204;42.698;23.298;2023-02-15T00:22:57;61.37;;;31.83;;
6342;SDS011;3204;42.698;23.298;2023-02-15T00:25:23;59.90;;;33.00;;
6342;SDS011;3204;42.698;23.298;2023-02-15T00:27:48;52.97;;;28.97;;
6342;SDS011;3204;42.698;23.298;2023-02-15T00:30:14;49.73;;;26.60;;
6342;SDS011;3204;42.698;23.298;2023-02-15T00:32:41;50.93;;;28.83;;
6342;SDS011;3204;42.698;23.298;2023-02-15T00:35:06;47.97;;;27.83;;
6342;SDS011;3204;42.698;23.298;2023-02-15T00:37:32;50.70;;;27.50;;
6342;SDS011;3204;42.698;23.298;2023-02-15T00:39:58;47.10;;;27.60;;
6342;SDS011;3204;42.698;23.298;2023-02-15T00:42:23;46.27;;;27.90;;
6342;SDS011;3204;42.698;23.298;2023-02-15T00:44:49;45.90;;;26.73;;
6342;SDS011;3204;42.698;23.298;2023-02-15T00:47:14;46.90;;;27.23;;
6342;SDS011;3204;42.698;23.298;2023-02-15T00:49:39;46.90;;;28.13;;
6342;SDS011;3204;42.698;23.298;2023-02-15T00:52:05;46.43;;;26.60;;
6342;SDS011;3204;42.698;23.298;2023-02-15T00:54:30;51.23;;;27.80;;
6342;SDS011;3204;42.698;23.298;2023-02-15T00:56:56;48.73;;;27.20;;
6342;SDS011;3204;42.698;23.298;2023-02-15T00:59:21;45.73;;;27.23;;
6342;SDS011;3204;42.698;23.298;2023-02-15T01:01:47;51.20;;;28.10;;
6342;SDS011;3204;42.698;23.298;2023-02-15T01:04:12;49.97;;;27.67;;
6342;SDS011;3204;42.698;23.298;2023-02-15T01:06:38;50.07;;;28.00;;
6342;SDS011;3204;42.698;23.298;2023-02-15T01:09:03;51.67;;;28.73;;
6342;SDS011;3204;42.698;23.298;2023-02-15T01:11:29;55.43;;;28.47;;
6342;SDS011;3204;42.698;23.298;2023-02-15T01:13:55;49.13;;;28.47;;
6342;SDS011;3204;42.698;23.298;2023-02-15T01:16:23;51.33;;;28.30;;
6342;SDS011;3204;42.698;23.298;2023-02-15T01:18:50;47.83;;;27.33;;
6342;SDS011;3204;42.698;23.298;2023-02-15T01:21:16;48.20;;;27.20;;
6342;SDS011;3204;42.698;23.298;2023-02-15T01:23:43;49.77;;;27.93;;
6342;SDS011;3204;42.698;23.298;2023-02-15T01:26:09;49.17;;;27.93;;
6342;SDS011;3204;42.698;23.298;2023-02-15T01:28:35;49.63;;;27.77;;
6342;SDS011;3204;42.698;23.298;2023-02-15T01:31:04;49.00;;;27.17;;
6342;SDS011;3204;42.698;23.298;2023-02-15T01:33:34;51.20;;;28.67;;
6342;SDS011;3204;42.698;23.298;2023-02-15T01:36:00;48.13;;;27.17;;
6342;SDS011;3204;42.698;23.298;2023-02-15T01:38:26;51.50;;;28.97;;
6342;SDS011;3204;42.698;23.298;2023-02-15T01:40:52;54.73;;;29.30;;
6342;SDS011;3204;42.698;23.298;2023-02-15T01:43:18;51.23;;;28.57;;
6342;SDS011;3204;42.698;23.298;2023-02-15T01:45:44;50.53;;;28.40;;
6342;SDS011;3204;42.698;23.298;2023-02-15T01:50:54;49.60;;;27.07;;
6342;SDS011;3204;42.698;23.298;2023-02-15T01:55:54;55.87;;;28.83;;
6342;SDS011;3204;42.698;23.298;2023-02-15T01:58:22;51.80;;;27.77;;
6342;SDS011;3204;42.698;23.298;2023-02-15T02:00:50;50.97;;;27.97;;
6342;SDS011;3204;42.698;23.298;2023-02-15T02:03:16;55.77;;;28.70;;
6342;SDS011;3204;42.698;23.298;2023-02-15T02:05:43;53.90;;;32.20;;
6342;SDS011;3204;42.698;23.298;2023-02-15T02:08:09;66.60;;;33.83;;
6342;SDS011;3204;42.698;23.298;2023-02-15T02:10:35;67.77;;;36.77;;
6342;SDS011;3204;42.698;23.298;2023-02-15T02:13:02;68.87;;;35.17;;
6342;SDS011;3204;42.698;23.298;2023-02-15T02:21:30;49.97;;;30.60;;
6342;SDS011;3204;42.698;23.298;2023-02-15T02:24:23;56.80;;;29.80;;
6342;SDS011;3204;42.698;23.298;2023-02-15T02:37:33;53.10;;;28.27;;
6342;SDS011;3204;42.698;23.298;2023-02-15T02:43:11;45.87;;;26.10;;
6342;SDS011;3204;42.698;23.298;2023-02-15T02:45:48;46.93;;;26.97;;
6342;SDS011;3204;42.698;23.298;2023-02-15T02:48:19;45.00;;;25.93;;
6342;SDS011;3204;42.698;23.298;2023-02-15T02:50:49;46.07;;;25.60;;
6342;SDS011;3204;42.698;23.298;2023-02-15T02:53:15;46.90;;;26.50;;
6342;SDS011;3204;42.698;23.298;2023-02-15T02:55:42;44.93;;;26.60;;
6342;SDS011;3204;42.698;23.298;2023-02-15T02:58:25;42.53;;;26.07;;
6342;SDS011;3204;42.698;23.298;2023-02-15T03:00:57;41.67;;;26.00;;
6342;SDS011;3204;42.698;23.298;2023-02-15T03:06:03;42.67;;;25.20;;
6342;SDS011;3204;42.698;23.298;2023-02-15T03:08:36;42.90;;;25.33;;
6342;SDS011;3204;42.698;23.298;2023-02-15T03:11:05;46.20;;;25.03;;
6342;SDS011;3204;42.698;23.298;2023-02-15T03:13:31;45.37;;;26.97;;
6342;SDS011;3204;42.698;23.298;2023-02-15T03:15:57;43.83;;;24.73;;
6342;SDS011;3204;42.698;23.298;2023-02-15T03:18:47;42.37;;;25.67;;
6342;SDS011;3204;42.698;23.298;2023-02-15T03:21:23;52.40;;;28.20;;
6342;SDS011;3204;42.698;23.298;2023-02-15T03:23:57;37.13;;;22.60;;
6342;SDS011;3204;42.698;23.298;2023-02-15T03:26:37;41.00;;;24.37;;
6342;SDS011;3204;42.698;23.298;2023-02-15T03:29:05;38.87;;;23.33;;
6342;SDS011;3204;42.698;23.298;2023-02-15T03:31:33;44.03;;;24.53;;
6342;SDS011;3204;42.698;23.298;2023-02-15T03:34:04;44.60;;;25.37;;
6342;SDS011;3204;42.698;23.298;2023-02-15T03:39:38;42.13;;;24.87;;
6342;SDS011;3204;42.698;23.298;2023-02-15T03:44:50;36.03;;;23.23;;
6342;SDS011;3204;42.698;23.298;2023-02-15T03:47:25;39.03;;;23.13;;
6342;SDS011;3204;42.698;23.298;2023-02-15T03:49:59;37.13;;;23.23;;
6342;SDS011;3204;42.698;23.298;2023-02-15T03:52:27;42.83;;;25.37;;
6342;SDS011;3204;42.698;23.298;2023-02-15T03:54:55;40.40;;;24.07;;
6342;SDS011;3204;42.698;23.298;2023-02-15T03:57:22;34.00;;;22.33;;
6342;SDS011;3204;42.698;23.298;2023-02-15T04:00:15;37.00;;;23.93;;
6342;SDS011;3204;42.698;23.298;2023-02-15T04:05:36;40.17;;;23.77;;
6342;SDS011;3204;42.698;23.298;2023-02-15T04:08:03;38.10;;;23.70;;
6342;SDS011;3204;42.698;23.298;2023-02-15T04:10:29;38.50;;;23.57;;
6342;SDS011;3204;42.698;23.298;2023-02-15T04:13:12;33.73;;;22.77;;
6342;SDS011;3204;42.698;23.298;2023-02-15T04:15:38;42.93;;;24.27;;
6342;SDS011;3204;42.698;23.298;2023-02-15T04:18:22;37.67;;;22.87;;
6342;SDS011;3204;42.698;23.298;2023-02-15T04:21:06;34.37;;;21.93;;
6342;SDS011;3204;42.698;23.298;2023-02-15T04:23:51;39.17;;;22.87;;
6342;SDS011;3204;42.698;23.298;2023-02-15T04:26:35;37.87;;;24.33;;
6342;SDS011;3204;42.698;23.298;2023-02-15T04:29:00;41.07;;;26.27;;
6342;SDS011;3204;42.698;23.298;2023-02-15T04:31:26;41.17;;;24.10;;
6342;SDS011;3204;42.698;23.298;2023-02-15T04:33:51;35.47;;;22.97;;
6342;SDS011;3204;42.698;23.298;2023-02-15T04:36:17;39.27;;;23.93;;
6342;SDS011;3204;42.698;23.298;2023-02-15T04:38:42;39.57;;;24.03;;
6342;SDS011;3204;42.698;23.298;2023-02-15T04:41:08;39.17;;;24.23;;
6342;SDS011;3204;42.698;23.298;2023-02-15T04:43:35;37.90;;;23.67;;
6342;SDS011;3204;42.698;23.298;2023-02-15T04:46:01;40.00;;;24.60;;
6342;SDS011;3204;42.698;23.298;2023-02-15T04:48:26;38.20;;;23.17;;
6342;SDS011;3204;42.698;23.298;2023-02-15T04:50:52;39.77;;;23.87;;
6342;SDS011;3204;42.698;23.298;2023-02-15T04:53:17;40.23;;;24.17;;
6342;SDS011;3204;42.698;23.298;2023-02-15T04:55:43;40.30;;;23.93;;
6342;SDS011;3204;42.698;23.298;2023-02-15T04:58:08;40.77;;;23.80;;
6342;SDS011;3204;42.698;23.298;2023-02-15T05:00:34;44.27;;;26.73;;
6342;SDS011;3204;42.698;23.298;2023-02-15T05:02:59;41.43;;;25.33;;
6342;SDS011;3204;42.698;23.298;2023-02-15T05:05:25;46.80;;;26.10;;
6342;SDS011;3204;42.698;23.298;2023-02-15T05:07:50;43.37;;;25.50;;
6342;SDS011;3204;42.698;23.298;2023-02-15T05:10:16;40.63;;;24.47;;
6342;SDS011;3204;42.698;23.298;2023-02-15T05:12:41;41.73;;;25.63;;
6342;SDS011;3204;42.698;23.298;2023-02-15T05:15:07;44.67;;;26.30;;
6342;SDS011;3204;42.698;23.298;2023-02-15T05:17:33;44.30;;;25.43;;
6342;SDS011;3204;42.698;23.298;2023-02-15T05:19:59;44.20;;;25.90;;
6342;SDS011;3204;42.698;23.298;2023-02-15T05:22:24;39.17;;;25.93;;
6342;SDS011;3204;42.698;23.298;2023-02-15T05:24:49;41.50;;;24.60;;
6342;SDS011;3204;42.698;23.298;2023-02-15T05:27:34;44.20;;;26.30;;
6342;SDS011;3204;42.698;23.298;2023-02-15T05:30:18;47.27;;;26.60;;
6342;SDS011;3204;42.698;23.298;2023-02-15T05:32:43;43.87;;;24.80;;
6342;SDS011;3204;42.698;23.298;2023-02-15T05:35:11;41.87;;;25.37;;
6342;SDS011;3204;42.698;23.298;2023-02-15T05:37:39;42.83;;;25.83;;
6342;SDS011;3204;42.698;23.298;2023-02-15T05:40:04;42.60;;;24.90;;
6342;SDS011;3204;42.698;23.298;2023-02-15T05:42:31;40.13;;;24.97;;
6342;SDS011;3204;42.698;23.298;2023-02-15T05:44:56;44.57;;;25.93;;
6342;SDS011;3204;42.698;23.298;2023-02-15T05:47:21;40.93;;;25.90;;
6342;SDS011;3204;42.698;23.298;2023-02-15T05:49:47;47.80;;;25.67;;
6342;SDS011;3204;42.698;23.298;2023-02-15T05:52:12;50.17;;;25.43;;
6342;SDS011;3204;42.698;23.298;2023-02-15T05:54:38;39.97;;;24.20;;
6342;SDS011;3204;42.698;23.298;2023-02-15T05:57:03;40.00;;;24.80;;
6342;SDS011;3204;42.698;23.298;2023-02-15T05:59:29;43.60;;;24.60;;
6342;SDS011;3204;42.698;23.298;2023-02-15T06:01:54;44.77;;;24.33;;
6342;SDS011;3204;42.698;23.298;2023-02-15T06:04:20;46.67;;;26.47;;
6342;SDS011;3204;42.698;23.298;2023-02-15T06:06:45;42.37;;;25.03;;
6342;SDS011;3204;42.698;23.298;2023-02-15T06:09:11;37.93;;;24.80;;
6342;SDS011;3204;42.698;23.298;2023-02-15T06:11:37;47.97;;;28.20;;
6342;SDS011;3204;42.698;23.298;2023-02-15T06:14:03;46.87;;;27.70;;
6342;SDS011;3204;42.698;23.298;2023-02-15T06:16:28;61.60;;;32.03;;
6342;SDS011;3204;42.698;23.298;2023-02-15T06:18:54;52.00;;;28.03;;
6342;SDS011;3204;42.698;23.298;2023-02-15T06:21:20;43.73;;;26.53;;
6342;SDS011;3204;42.698;23.298;2023-02-15T06:23:45;47.33;;;26.93;;
6342;SDS011;3204;42.698;23.298;2023-02-15T06:26:11;51.60;;;29.30;;
6342;SDS011;3204;42.698;23.298;2023-02-15T06:28:36;49.13;;;29.23;;
6342;SDS011;3204;42.698;23.298;2023-02-15T06:31:02;47.63;;;28.80;;
6342;SDS011;3204;42.698;23.298;2023-02-15T06:33:28;51.10;;;27.40;;
6342;SDS011;3204;42.698;23.298;2023-02-15T06:35:55;46.67;;;27.00;;
6342;SDS011;3204;42.698;23.298;2023-02-15T06:38:21;48.43;;;26.13;;
6342;SDS011;3204;42.698;23.298;2023-02-15T06:40:47;42.67;;;25.23;;
6342;SDS011;3204;42.698;23.298;2023-02-15T06:43:12;42.70;;;24.90;;
6342;SDS011;3204;42.698;23.298;2023-02-15T06:45:38;47.17;;;27.97;;
6342;SDS011;3204;42.698;23.298;2023-02-15T06:48:03;39.60;;;24.37;;
6342;SDS011;3204;42.698;23.298;2023-02-15T06:50:31;37.33;;;24.03;;
6342;SDS011;3204;42.698;23.298;2023-02-15T06:52:57;39.07;;;24.53;;
6342;SDS011;3204;42.698;23.298;2023-02-15T06:55:23;36.47;;;22.73;;
6342;SDS011;3204;42.698;23.298;2023-02-15T06:57:49;41.23;;;23.90;;
6342;SDS011;3204;42.698;23.298;2023-02-15T07:00:15;37.57;;;23.57;;
6342;SDS011;3204;42.698;23.298;2023-02-15T07:02:40;37.57;;;21.23;;
6342;SDS011;3204;42.698;23.298;2023-02-15T07:05:06;32.67;;;20.23;;
6342;SDS011;3204;42.698;23.298;2023-02-15T07:07:31;34.40;;;21.70;;
6342;SDS011;3204;42.698;23.298;2023-02-15T07:09:57;35.93;;;22.13;;
6342;SDS011;3204;42.698;23.298;2023-02-15T07:12:22;35.57;;;21.77;;
6342;SDS011;3204;42.698;23.298;2023-02-15T07:15:06;32.63;;;20.73;;
6342;SDS011;3204;42.698;23.298;2023-02-15T07:17:34;44.70;;;26.20;;
6342;SDS011;3204;42.698;23.298;2023-02-15T07:20:00;39.00;;;25.60;;
6342;SDS011;3204;42.698;23.298;2023-02-15T07:22:26;32.03;;;20.90;;
6342;SDS011;3204;42.698;23.298;2023-02-15T07:24:52;29.47;;;19.43;;
6342;SDS011;3204;42.698;23.298;2023-02-15T07:27:19;29.83;;;20.57;;
6342;SDS011;3204;42.698;23.298;2023-02-15T07:29:46;30.40;;;19.80;;
6342;SDS011;3204;42.698;23.298;2023-02-15T07:32:11;31.30;;;19.63;;
6342;SDS011;3204;42.698;23.298;2023-02-15T07:34:37;30.60;;;19.10;;
6342;SDS011;3204;42.698;23.298;2023-02-15T07:37:02;30.37;;;19.70;;
6342;SDS011;3204;42.698;23.298;2023-02-15T07:39:29;27.43;;;17.83;;
6342;SDS011;3204;42.698;23.298;2023-02-15T07:41:54;28.93;;;18.27;;
6342;SDS011;3204;42.698;23.298;2023-02-15T07:44:20;26.13;;;18.63;;
6342;SDS011;3204;42.698;23.298;2023-02-15T07:46:45;27.40;;;18.33;;
6342;SDS011;3204;42.698;23.298;2023-02-15T07:49:11;25.17;;;18.50;;
6342;SDS011;3204;42.698;23.298;2023-02-15T07:51:36;34.10;;;20.77;;
6342;SDS011;3204;42.698;23.298;2023-02-15T07:54:02;28.70;;;18.30;;
6342;SDS011;3204;42.698;23.298;2023-02-15T07:56:27;31.27;;;19.33;;
6342;SDS011;3204;42.698;23.298;2023-02-15T07:58:53;30.57;;;18.80;;
6342;SDS011;3204;42.698;23.298;2023-02-15T08:01:25;31.87;;;18.33;;
6342;SDS011;3204;42.698;23.298;2023-02-15T08:03:52;28.33;;;18.47;;
6342;SDS011;3204;42.698;23.298;2023-02-15T08:06:18;27.67;;;18.73;;
6342;SDS011;3204;42.698;23.298;2023-02-15T08:08:44;32.90;;;20.03;;
6342;SDS011;3204;42.698;23.298;2023-02-15T08:13:51;28.30;;;18.03;;
6342;SDS011;3204;42.698;23.298;2023-02-15T08:16:21;32.23;;;19.00;;
6342;SDS011;3204;42.698;23.298;2023-02-15T08:18:51;27.17;;;18.33;;
6342;SDS011;3204;42.698;23.298;2023-02-15T08:21:17;30.37;;;17.97;;
6342;SDS011;3204;42.698;23.298;2023-02-15T08:23:43;43.83;;;31.87;;
6342;SDS011;3204;42.698;23.298;2023-02-15T08:26:08;38.83;;;20.80;;
6342;SDS011;3204;42.698;23.298;2023-02-15T08:28:34;27.90;;;18.33;;
6342;SDS011;3204;42.698;23.298;2023-02-15T08:31:06;31.60;;;20.00;;
6342;SDS011;3204;42.698;23.298;2023-02-15T08:33:33;34.17;;;19.23;;
6342;SDS011;3204;42.698;23.298;2023-02-15T08:36:06;28.20;;;18.20;;
6342;SDS011;3204;42.698;23.298;2023-02-15T08:38:40;26.10;;;16.67;;
6342;SDS011;3204;42.698;23.298;2023-02-15T08:41:13;32.40;;;19.33;;
6342;SDS011;3204;42.698;23.298;2023-02-15T08:43:41;38.00;;;19.57;;
6342;SDS011;3204;42.698;23.298;2023-02-15T08:46:07;30.73;;;18.37;;
6342;SDS011;3204;42.698;23.298;2023-02-15T08:48:34;35.83;;;18.47;;
6342;SDS011;3204;42.698;23.298;2023-02-15T08:51:04;66.33;;;19.80;;
6342;SDS011;3204;42.698;23.298;2023-02-15T08:53:37;48.37;;;19.10;;
6342;SDS011;3204;42.698;23.298;2023-02-15T08:56:04;37.17;;;19.13;;
6342;SDS011;3204;42.698;23.298;2023-02-15T08:58:30;27.37;;;17.17;;
6342;SDS011;3204;42.698;23.298;2023-02-15T09:00:56;25.37;;;16.93;;
6342;SDS011;3204;42.698;23.298;2023-02-15T09:03:22;28.83;;;17.57;;
6342;SDS011;3204;42.698;23.298;2023-02-15T09:05:48;25.97;;;17.07;;
6342;SDS011;3204;42.698;23.298;2023-02-15T09:08:14;25.17;;;16.83;;
6342;SDS011;3204;42.698;23.298;2023-02-15T09:10:40;25.13;;;16.73;;
6342;SDS011;3204;42.698;23.298;2023-02-15T09:13:06;30.17;;;18.37;;
6342;SDS011;3204;42.698;23.298;2023-02-15T09:15:32;30.43;;;18.33;;
6342;SDS011;3204;42.698;23.298;2023-02-15T09:17:57;27.40;;;17.90;;
6342;SDS011;3204;42.698;23.298;2023-02-15T09:20:26;24.13;;;16.63;;
6342;SDS011;3204;42.698;23.298;2023-02-15T09:22:53;24.73;;;16.60;;
6342;SDS011;3204;42.698;23.298;2023-02-15T09:25:19;27.97;;;18.77;;
6342;SDS011;3204;42.698;23.298;2023-02-15T09:27:44;29.63;;;18.87;;
6342;SDS011;3204;42.698;23.298;2023-02-15T09:30:10;34.93;;;19.33;;
6342;SDS011;3204;42.698;23.298;2023-02-15T09:32:36;30.50;;;17.97;;
6342;SDS011;3204;42.698;23.298;2023-02-15T09:35:02;30.90;;;17.00;;
6342;SDS011;3204;42.698;23.298;2023-02-15T09:37:27;26.83;;;17.90;;
6342;SDS011;3204;42.698;23.298;2023-02-15T09:39:54;26.03;;;17.67;;
6342;SDS011;3204;42.698;23.298;2023-02-15T09:50:42;26.93;;;18.27;;
6342;SDS011;3204;42.698;23.298;2023-02-15T10:28:58;32.97;;;18.50;;
6342;SDS011;3204;42.698;23.298;2023-02-15T10:34:16;34.67;;;19.23;;
6342;SDS011;3204;42.698;23.298;2023-02-15T10:39:49;45.90;;;24.00;;
6342;SDS011;3204;42.698;23.298;2023-02-15T10:42:40;29.10;;;20.90;;
6342;SDS011;3204;42.698;23.298;2023-02-15T10:45:17;31.53;;;18.23;;
6342;SDS011;3204;42.698;23.298;2023-02-15T10:50:59;28.10;;;19.60;;
6342;SDS011;3204;42.698;23.298;2023-02-15T10:58:43;26.53;;;19.60;;
6342;SDS011;3204;42.698;23.298;2023-02-15T11:01:34;32.80;;;20.57;;
6342;SDS011;3204;42.698;23.298;2023-02-15T11:04:11;29.23;;;19.50;;
6342;SDS011;3204;42.698;23.298;2023-02-15T11:06:50;26.13;;;18.60;;
6342;SDS011;3204;42.698;23.298;2023-02-15T11:09:21;28.10;;;19.17;;
6342;SDS011;3204;42.698;23.298;2023-02-15T11:11:52;27.77;;;19.97;;
6342;SDS011;3204;42.698;23.298;2023-02-15T11:17:02;26.20;;;19.90;;
6342;SDS011;3204;42.698;23.298;2023-02-15T11:19:39;28.73;;;20.30;;
6342;SDS011;3204;42.698;23.298;2023-02-15T11:22:20;28.97;;;20.07;;
6342;SDS011;3204;42.698;23.298;2023-02-15T11:24:45;30.73;;;20.50;;
6342;SDS011;3204;42.698;23.298;2023-02-15T11:29:38;30.93;;;20.57;;
6342;SDS011;3204;42.698;23.298;2023-02-15T11:32:13;33.00;;;20.80;;
6342;SDS011;3204;42.698;23.298;2023-02-15T11:37:48;28.10;;;19.77;;
6342;SDS011;3204;42.698;23.298;2023-02-15T11:40:21;30.23;;;20.03;;
6342;SDS011;3204;42.698;23.298;2023-02-15T11:42:49;28.50;;;20.23;;
6342;SDS011;3204;42.698;23.298;2023-02-15T11:45:26;26.60;;;19.30;;
6342;SDS011;3204;42.698;23.298;2023-02-15T11:47:54;29.13;;;20.47;;
6342;SDS011;3204;42.698;23.298;2023-02-15T11:50:39;28.93;;;19.13;;
6342;SDS011;3204;42.698;23.298;2023-02-15T11:53:09;32.23;;;20.57;;
6342;SDS011;3204;42.698;23.298;2023-02-15T11:55:41;31.63;;;20.13;;
6342;SDS011;3204;42.698;23.298;2023-02-15T12:00:46;35.60;;;21.33;;
6342;SDS011;3204;42.698;23.298;2023-02-15T12:03:22;31.77;;;22.33;;
6342;SDS011;3204;42.698;23.298;2023-02-15T12:06:00;36.33;;;20.93;;
6342;SDS011;3204;42.698;23.298;2023-02-15T12:08:38;26.87;;;19.33;;
6342;SDS011;3204;42.698;23.298;2023-02-15T12:11:11;33.70;;;20.07;;
6342;SDS011;3204;42.698;23.298;2023-02-15T12:13:53;31.97;;;20.47;;
6342;SDS011;3204;42.698;23.298;2023-02-15T12:19:32;31.37;;;19.20;;
6342;SDS011;3204;42.698;23.298;2023-02-15T12:22:05;27.60;;;19.90;;
6342;SDS011;3204;42.698;23.298;2023-02-15T12:24:37;33.67;;;19.57;;
6342;SDS011;3204;42.698;23.298;2023-02-15T12:27:17;34.50;;;21.80;;
6342;SDS011;3204;42.698;23.298;2023-02-15T12:29:58;35.17;;;21.13;;
6342;SDS011;3204;42.698;23.298;2023-02-15T12:32:34;31.90;;;20.57;;
6342;SDS011;3204;42.698;23.298;2023-02-15T12:35:14;30.57;;;19.73;;
6342;SDS011;3204;42.698;23.298;2023-02-15T12:40:59;29.07;;;19.70;;
6342;SDS011;3204;42.698;23.298;2023-02-15T12:43:29;27.63;;;18.70;;
6342;SDS011;3204;42.698;23.298;2023-02-15T12:57:13;30.17;;;19.77;;
6342;SDS011;3204;42.698;23.298;2023-02-15T12:59:58;32.57;;;18.60;;
6342;SDS011;3204;42.698;23.298;2023-02-15T13:08:14;39.73;;;21.17;;
6342;SDS011;3204;42.698;23.298;2023-02-15T13:10:51;38.27;;;21.70;;
6342;SDS011;3204;42.698;23.298;2023-02-15T13:13:56;28.17;;;18.27;;
6342;SDS011;3204;42.698;23.298;2023-02-15T13:16:31;27.33;;;19.53;;
6342;SDS011;3204;42.698;23.298;2023-02-15T13:19:02;26.20;;;18.53;;
6342;SDS011;3204;42.698;23.298;2023-02-15T13:21:35;30.73;;;19.47;;
6342;SDS011;3204;42.698;23.298;2023-02-15T13:26:44;28.13;;;18.50;;
6342;SDS011;3204;42.698;23.298;2023-02-15T13:29:15;27.57;;;18.60;;
6342;SDS011;3204;42.698;23.298;2023-02-15T13:31:46;29.33;;;18.90;;
6342;SDS011;3204;42.698;23.298;2023-02-15T13:34:31;29.87;;;19.60;;
6342;SDS011;3204;42.698;23.298;2023-02-15T13:37:16;28.27;;;20.27;;
6342;SDS011;3204;42.698;23.298;2023-02-15T13:42:31;27.53;;;18.87;;
6342;SDS011;3204;42.698;23.298;2023-02-15T13:47:59;30.20;;;20.27;;
6342;SDS011;3204;42.698;23.298;2023-02-15T13:50:43;31.93;;;20.47;;
6342;SDS011;3204;42.698;23.298;2023-02-15T14:01:34;30.20;;;20.33;;
6342;SDS011;3204;42.698;23.298;2023-02-15T14:06:51;32.72;;;20.27;;
6342;SDS011;3204;42.698;23.298;2023-02-15T14:11:56;31.58;;;21.25;;
6342;SDS011;3204;42.698;23.298;2023-02-15T14:20:24;30.25;;;20.70;;
6342;SDS011;3204;42.698;23.298;2023-02-15T14:26:21;28.17;;;19.70;;
6342;SDS011;3204;42.698;23.298;2023-02-15T14:31:52;38.72;;;20.30;;
6342;SDS011;3204;42.698;23.298;2023-02-15T14:34:24;26.95;;;20.70;;
6342;SDS011;3204;42.698;23.298;2023-02-15T14:36:55;36.50;;;21.60;;
6342;SDS011;3204;42.698;23.298;2023-02-15T14:48:04;30.20;;;20.50;;
6342;SDS011;3204;42.698;23.298;2023-02-15T14:50:40;33.43;;;22.00;;
6342;SDS011;3204;42.698;23.298;2023-02-15T14:53:22;30.27;;;21.23;;
6342;SDS011;3204;42.698;23.298;2023-02-15T14:58:32;27.63;;;20.07;;
6342;SDS011;3204;42.698;23.298;2023-02-15T15:01:03;28.07;;;20.30;;
6342;SDS011;3204;42.698;23.298;2023-02-15T15:03:34;32.77;;;20.87;;
6342;SDS011;3204;42.698;23.298;2023-02-15T15:06:01;30.17;;;20.53;;
6342;SDS011;3204;42.698;23.298;2023-02-15T15:08:34;35.23;;;22.57;;
6342;SDS011;3204;42.698;23.298;2023-02-15T15:13:56;38.13;;;23.27;;
6342;SDS011;3204;42.698;23.298;2023-02-15T15:16:30;37.70;;;22.07;;
6342;SDS011;3204;42.698;23.298;2023-02-15T15:19:12;37.73;;;22.63;;
6342;SDS011;3204;42.698;23.298;2023-02-15T15:22:01;37.17;;;23.07;;
6342;SDS011;3204;42.698;23.298;2023-02-15T15:32:44;41.87;;;24.87;;
6342;SDS011;3204;42.698;23.298;2023-02-15T15:40:41;41.23;;;24.03;;
6342;SDS011;3204;42.698;23.298;2023-02-15T15:43:32;43.10;;;25.77;;
6342;SDS011;3204;42.698;23.298;2023-02-15T15:49:24;43.20;;;24.23;;
6342;SDS011;3204;42.698;23.298;2023-02-15T15:51:55;44.20;;;25.13;;
6342;SDS011;3204;42.698;23.298;2023-02-15T15:54:25;39.10;;;23.80;;
6342;SDS011;3204;42.698;23.298;2023-02-15T15:56:55;51.33;;;25.67;;
6342;SDS011;3204;42.698;23.298;2023-02-15T15:59:28;38.53;;;23.63;;
6342;SDS011;3204;42.698;23.298;2023-02-15T16:01:55;34.47;;;22.23;;
6342;SDS011;3204;42.698;23.298;2023-02-15T16:04:29;39.33;;;22.47;;
6342;SDS011;3204;42.698;23.298;2023-02-15T16:06:57;37.77;;;23.50;;
6342;SDS011;3204;42.698;23.298;2023-02-15T16:09:38;47.47;;;24.07;;
6342;SDS011;3204;42.698;23.298;2023-02-15T16:12:03;41.83;;;25.10;;
6342;SDS011;3204;42.698;23.298;2023-02-15T16:14:39;37.87;;;23.57;;
6342;SDS011;3204;42.698;23.298;2023-02-15T16:17:07;45.13;;;28.00;;
6342;SDS011;3204;42.698;23.298;2023-02-15T16:19:39;40.00;;;23.23;;
6342;SDS011;3204;42.698;23.298;2023-02-15T16:22:11;35.37;;;22.77;;
6342;SDS011;3204;42.698;23.298;2023-02-15T16:27:34;65.67;;;32.33;;
6342;SDS011;3204;42.698;23.298;2023-02-15T16:33:11;43.43;;;25.60;;
6342;SDS011;3204;42.698;23.298;2023-02-15T16:35:53;46.53;;;26.53;;
6342;SDS011;3204;42.698;23.298;2023-02-15T16:41:08;47.33;;;25.53;;
6342;SDS011;3204;42.698;23.298;2023-02-15T16:43:36;38.17;;;23.70;;
6342;SDS011;3204;42.698;23.298;2023-02-15T16:46:06;38.57;;;23.27;;
6342;SDS011;3204;42.698;23.298;2023-02-15T16:48:50;33.50;;;21.80;;
6342;SDS011;3204;42.698;23.298;2023-02-15T16:51:23;37.07;;;22.67;;
6342;SDS011;3204;42.698;23.298;2023-02-15T16:53:51;34.50;;;22.97;;
6342;SDS011;3204;42.698;23.298;2023-02-15T16:56:22;41.87;;;26.37;;
6342;SDS011;3204;42.698;23.298;2023-02-15T16:58:49;40.03;;;24.80;;
6342;SDS011;3204;42.698;23.298;2023-02-15T17:01:17;36.93;;;24.07;;
6342;SDS011;3204;42.698;23.298;2023-02-15T17:03:49;41.37;;;25.50;;
6342;SDS011;3204;42.698;23.298;2023-02-15T17:06:23;71.30;;;34.53;;
6342;SDS011;3204;42.698;23.298;2023-02-15T17:08:51;50.33;;;28.10;;
6342;SDS011;3204;42.698;23.298;2023-02-15T17:11:21;49.23;;;28.77;;
6342;SDS011;3204;42.698;23.298;2023-02-15T17:16:31;62.33;;;33.27;;
6342;SDS011;3204;42.698;23.298;2023-02-15T17:19:07;56.83;;;35.23;;
6342;SDS011;3204;42.698;23.298;2023-02-15T17:21:43;57.10;;;31.60;;
6342;SDS011;3204;42.698;23.298;2023-02-15T17:24:38;59.13;;;30.73;;
6342;SDS011;3204;42.698;23.298;2023-02-15T17:29:55;58.07;;;31.73;;
6342;SDS011;3204;42.698;23.298;2023-02-15T17:32:26;48.07;;;26.20;;
6342;SDS011;3204;42.698;23.298;2023-02-15T17:40:06;52.90;;;27.20;;
6342;SDS011;3204;42.698;23.298;2023-02-15T17:42:41;58.00;;;30.33;;
6342;SDS011;3204;42.698;23.298;2023-02-15T17:45:07;47.57;;;25.63;;
6342;SDS011;3204;42.698;23.298;2023-02-15T17:47:32;43.47;;;25.80;;
6342;SDS011;3204;42.698;23.298;2023-02-15T17:49:58;44.20;;;24.57;;
6342;SDS011;3204;42.698;23.298;2023-02-15T17:52:26;37.33;;;23.23;;
6342;SDS011;3204;42.698;23.298;2023-02-15T17:54:54;36.63;;;22.93;;
6342;SDS011;3204;42.698;23.298;2023-02-15T17:57:38;38.43;;;23.70;;
6342;SDS011;3204;42.698;23.298;2023-02-15T18:00:04;37.90;;;23.80;;
6342;SDS011;3204;42.698;23.298;2023-02-15T18:02:49;36.60;;;22.23;;
6342;SDS011;3204;42.698;23.298;2023-02-15T18:05:33;41.63;;;23.93;;
6342;SDS011;3204;42.698;23.298;2023-02-15T18:08:26;42.47;;;25.00;;
6342;SDS011;3204;42.698;23.298;2023-02-15T18:11:11;42.20;;;26.10;;
6342;SDS011;3204;42.698;23.298;2023-02-15T18:13:56;48.17;;;28.13;;
6342;SDS011;3204;42.698;23.298;2023-02-15T18:16:25;50.07;;;28.50;;
6342;SDS011;3204;42.698;23.298;2023-02-15T18:18:53;50.57;;;28.77;;
6342;SDS011;3204;42.698;23.298;2023-02-15T18:21:19;51.90;;;30.60;;
6342;SDS011;3204;42.698;23.298;2023-02-15T18:23:45;48.73;;;29.43;;
6342;SDS011;3204;42.698;23.298;2023-02-15T18:26:21;54.60;;;29.77;;